Time;durP1;ratioP1;P1;durP2;ratioP2;P2;SDS_P1;SDS_P2;PMS_P1;PMS_P2;Temp;Humidity;BMP_temperature;BMP_pressure;BME280_temperature;BME280_humidity;BME280_pressure;Samples;Min_cycle;Max_cycle;Signal;HPM_P1;HPM_P2
2022/06/12 00:03:35;;;;;;;17.53;7.70;;;;;;;;;;10460854;28;20097;-74
2022/06/12 00:08:38;;;;;;;8.18;6.30;;;;;;;;;;10476195;28;20408;-72
2022/06/12 00:13:47;;;;;;;11.90;7.65;;;;;;;;;;10482763;28;20469;-73
2022/06/12 00:18:47;;;;;;;9.88;6.88;;;;;;;;;;10468300;28;20032;-74
2022/06/12 00:23:50;;;;;;;12.73;7.95;;;;;;;;;;10467615;28;20021;-68
2022/06/12 00:29:01;;;;;;;14.68;9.05;;;;;;;;;;10469265;28;20034;-79
2022/06/12 00:34:02;;;;;;;13.75;8.85;;;;;;;;;;10466917;28;20017;-72
2022/06/12 00:39:03;;;;;;;24.88;9.82;;;;;;;;;;10467384;28;20701;-72
2022/06/12 00:44:04;;;;;;;18.10;11.35;;;;;;;;;;10466956;28;20027;-74
2022/06/12 00:49:09;;;;;;;15.80;10.13;;;;;;;;;;10467582;28;20032;-75
2022/06/12 00:54:10;;;;;;;19.65;11.30;;;;;;;;;;10464369;28;20051;-70
2022/06/12 00:59:13;;;;;;;18.77;10.68;;;;;;;;;;10470434;28;20538;-74
2022/06/12 01:09:36;;;;;;;17.33;11.27;;;;;;;;;;10491325;28;20067;-71
2022/06/12 01:14:40;;;;;;;14.73;10.13;;;;;;;;;;10484324;22;20060;-74
2022/06/12 01:19:51;;;;;;;20.85;11.90;;;;;;;;;;10404253;28;20044;-71
2022/06/12 01:25:10;;;;;;;15.73;10.32;;;;;;;;;;10389509;28;20586;-71
2022/06/12 01:30:23;;;;;;;16.23;10.75;;;;;;;;;;10415302;28;20048;-73
2022/06/12 01:35:29;;;;;;;15.85;10.63;;;;;;;;;;10444832;28;20029;-71
2022/06/12 01:40:30;;;;;;;17.42;10.50;;;;;;;;;;10429501;28;20415;-75
2022/06/12 01:45:34;;;;;;;13.87;9.57;;;;;;;;;;10430774;28;20017;-72
2022/06/12 01:50:39;;;;;;;18.52;12.02;;;;;;;;;;10423427;28;20031;-75
2022/06/12 01:55:53;;;;;;;15.95;11.10;;;;;;;;;;10448509;28;20020;-75
2022/06/12 02:01:02;;;;;;;14.55;10.10;;;;;;;;;;10377937;28;20111;-73
2022/06/12 02:06:05;;;;;;;14.05;9.80;;;;;;;;;;10415333;28;20119;-72
2022/06/12 02:16:33;;;;;;;16.63;9.68;;;;;;;;;;10395901;28;20021;-74
2022/06/12 02:21:41;;;;;;;15.73;9.65;;;;;;;;;;10429742;28;20128;-73
2022/06/12 02:26:48;;;;;;;16.58;10.27;;;;;;;;;;10402667;28;20033;-75
2022/06/12 02:31:51;;;;;;;16.58;10.27;;;;;;;;;;10426584;28;20032;-72
2022/06/12 02:37:04;;;;;;;14.15;9.10;;;;;;;;;;10418523;28;20021;-72
2022/06/12 02:42:07;;;;;;;19.90;9.85;;;;;;;;;;10443178;28;20029;-73
2022/06/12 02:47:15;;;;;;;14.05;10.40;;;;;;;;;;10425963;28;20017;-73
2022/06/12 02:52:28;;;;;;;14.88;9.65;;;;;;;;;;10433967;28;20021;-74
2022/06/12 02:57:29;;;;;;;13.93;9.55;;;;;;;;;;10438841;28;20479;-70
2022/06/12 03:02:31;;;;;;;14.10;9.77;;;;;;;;;;10436774;28;20033;-72
2022/06/12 03:07:32;;;;;;;18.17;9.43;;;;;;;;;;10427662;28;20031;-74
2022/06/12 03:12:33;;;;;;;15.65;10.50;;;;;;;;;;10444694;28;20511;-73
2022/06/12 03:17:33;;;;;;;20.42;10.43;;;;;;;;;;10426912;28;20104;-77
2022/06/12 03:22:34;;;;;;;13.97;9.87;;;;;;;;;;10427013;28;20071;-72
2022/06/12 03:27:59;;;;;;;13.93;11.32;;;;;;;;;;10435595;28;20023;-75
2022/06/12 03:33:07;;;;;;;13.98;9.65;;;;;;;;;;10414558;28;20064;-78
2022/06/12 03:38:11;;;;;;;13.35;9.52;;;;;;;;;;10441437;28;20029;-73
2022/06/12 03:43:26;;;;;;;15.00;9.82;;;;;;;;;;10437327;28;20033;-70
2022/06/12 03:48:30;;;;;;;14.05;9.93;;;;;;;;;;10411762;28;20031;-70
2022/06/12 03:53:34;;;;;;;14.82;9.70;;;;;;;;;;10424056;28;20032;-71
2022/06/12 03:58:40;;;;;;;12.52;9.60;;;;;;;;;;10422970;28;20430;-69
2022/06/12 04:03:42;;;;;;;16.52;10.25;;;;;;;;;;10425099;28;20028;-71
2022/06/12 04:08:52;;;;;;;13.90;10.20;;;;;;;;;;10415264;28;20413;-72
2022/06/12 04:13:52;;;;;;;12.27;8.85;;;;;;;;;;10419703;28;20045;-71
2022/06/12 04:18:53;;;;;;;16.20;10.05;;;;;;;;;;10418991;28;20043;-72
2022/06/12 04:24:10;;;;;;;14.20;8.93;;;;;;;;;;10412418;28;20025;-69
2022/06/12 04:29:11;;;;;;;14.55;9.85;;;;;;;;;;10426143;28;20075;-71
2022/06/12 04:34:17;;;;;;;16.55;10.80;;;;;;;;;;10443077;28;20120;-72
2022/06/12 04:39:18;;;;;;;17.20;10.32;;;;;;;;;;10430307;28;20074;-74
2022/06/12 04:44:19;;;;;;;14.75;10.88;;;;;;;;;;10423335;28;20040;-72
2022/06/12 04:49:21;;;;;;;19.13;10.50;;;;;;;;;;10420099;28;20032;-73
2022/06/12 04:54:22;;;;;;;17.83;11.52;;;;;;;;;;10438576;28;20058;-78
2022/06/12 04:59:23;;;;;;;19.38;11.93;;;;;;;;;;10443643;28;20017;-72
2022/06/12 05:04:25;;;;;;;19.88;11.40;;;;;;;;;;10445243;28;20072;-71
2022/06/12 05:09:26;;;;;;;18.33;11.45;;;;;;;;;;10446880;28;20029;-76
2022/06/12 05:14:26;;;;;;;16.50;11.18;;;;;;;;;;10427074;28;20044;-73
2022/06/12 05:19:28;;;;;;;15.90;11.25;;;;;;;;;;10426952;28;20033;-75
2022/06/12 05:24:29;;;;;;;14.63;11.00;;;;;;;;;;10420609;28;20029;-73
2022/06/12 05:29:32;;;;;;;15.43;10.55;;;;;;;;;;10444675;28;20032;-72
2022/06/12 05:34:33;;;;;;;16.88;10.35;;;;;;;;;;10442656;28;20029;-78
2022/06/12 05:39:33;;;;;;;23.63;11.20;;;;;;;;;;10426804;28;20120;-73
2022/06/12 05:44:34;;;;;;;15.93;9.70;;;;;;;;;;10442963;28;20021;-72
2022/06/12 05:49:35;;;;;;;14.45;9.65;;;;;;;;;;10425625;28;20017;-72
2022/06/12 05:54:35;;;;;;;11.23;7.63;;;;;;;;;;10409430;28;20048;-73
2022/06/12 05:59:35;;;;;;;13.50;9.35;;;;;;;;;;10444221;28;20171;-74
2022/06/12 06:04:35;;;;;;;16.90;8.23;;;;;;;;;;10441711;28;20052;-72
2022/06/12 06:09:36;;;;;;;12.95;8.75;;;;;;;;;;10442086;28;20036;-73
2022/06/12 06:14:36;;;;;;;15.55;9.63;;;;;;;;;;10408214;28;20113;-73
2022/06/12 06:19:36;;;;;;;14.68;10.07;;;;;;;;;;10441745;28;20029;-75
2022/06/12 06:24:36;;;;;;;16.55;10.80;;;;;;;;;;10443470;28;20514;-75
2022/06/12 06:29:37;;;;;;;24.27;12.45;;;;;;;;;;10443527;28;20040;-72
2022/06/12 06:34:38;;;;;;;15.65;10.43;;;;;;;;;;10424488;28;20029;-71
2022/06/12 06:39:38;;;;;;;14.43;10.55;;;;;;;;;;10444494;28;20028;-74
2022/06/12 06:49:58;;;;;;;13.80;9.73;;;;;;;;;;10440510;28;20399;-73
2022/06/12 06:54:58;;;;;;;20.65;11.50;;;;;;;;;;10435772;28;20037;-73
2022/06/12 06:59:58;;;;;;;15.60;10.40;;;;;;;;;;10436989;28;20025;-75
2022/06/12 07:04:58;;;;;;;12.63;9.45;;;;;;;;;;10411507;28;20025;-74
2022/06/12 07:09:59;;;;;;;17.03;10.13;;;;;;;;;;10412705;28;20056;-75
2022/06/12 07:14:59;;;;;;;18.42;11.25;;;;;;;;;;10397987;28;20041;-76
2022/06/12 07:19:59;;;;;;;15.80;10.38;;;;;;;;;;10423970;28;20051;-78
2022/06/12 07:24:59;;;;;;;17.95;11.27;;;;;;;;;;10410032;28;20029;-77
2022/06/12 07:30:00;;;;;;;18.90;11.50;;;;;;;;;;10413605;28;20487;-75
2022/06/12 07:35:01;;;;;;;17.05;12.13;;;;;;;;;;10416027;28;20032;-71
2022/06/12 07:40:02;;;;;;;16.83;11.60;;;;;;;;;;10400638;28;20025;-75
2022/06/12 07:45:03;;;;;;;19.63;13.00;;;;;;;;;;10411445;28;20032;-70
2022/06/12 07:50:03;;;;;;;18.58;12.02;;;;;;;;;;10429950;28;20025;-71
2022/06/12 07:55:04;;;;;;;17.90;12.90;;;;;;;;;;10432238;28;20020;-70
2022/06/12 08:00:05;;;;;;;21.45;12.95;;;;;;;;;;10417999;28;20549;-70
2022/06/12 08:05:06;;;;;;;23.85;12.65;;;;;;;;;;10441224;28;20414;-75
2022/06/12 08:10:06;;;;;;;18.08;12.73;;;;;;;;;;10427571;28;20036;-71
2022/06/12 08:15:10;;;;;;;23.83;13.18;;;;;;;;;;10425278;28;20048;-71
2022/06/12 08:20:25;;;;;;;21.95;12.95;;;;;;;;;;10423431;28;20467;-75
2022/06/12 08:25:27;;;;;;;20.15;13.15;;;;;;;;;;10439205;28;20035;-75
2022/06/12 08:30:28;;;;;;;23.42;12.98;;;;;;;;;;10432094;28;20033;-76
2022/06/12 08:35:29;;;;;;;19.80;13.63;;;;;;;;;;10437393;28;20029;-73
2022/06/12 08:40:53;;;;;;;17.33;12.68;;;;;;;;;;10457294;28;20693;-76
2022/06/12 08:45:55;;;;;;;22.92;13.80;;;;;;;;;;10428352;28;20029;-75
2022/06/12 08:51:05;;;;;;;17.90;12.07;;;;;;;;;;10441807;28;20098;-74
2022/06/12 08:56:08;;;;;;;16.67;12.63;;;;;;;;;;10452202;28;20034;-75
2022/06/12 09:01:09;;;;;;;17.40;10.90;;;;;;;;;;10453611;28;20037;-74
2022/06/12 09:06:09;;;;;;;18.95;11.55;;;;;;;;;;10451350;28;20033;-76
2022/06/12 09:11:15;;;;;;;14.40;9.57;;;;;;;;;;10435319;28;20049;-75
2022/06/12 09:16:15;;;;;;;14.93;10.18;;;;;;;;;;10449362;28;20102;-77
2022/06/12 09:21:35;;;;;;;13.25;9.45;;;;;;;;;;10435770;28;20507;-77
2022/06/12 09:26:54;;;;;;;15.10;11.10;;;;;;;;;;10454859;28;20580;-71
2022/06/12 09:32:03;;;;;;;16.95;9.45;;;;;;;;;;10449653;28;20116;-75
2022/06/12 09:38:18;;;;;;;13.55;9.57;;;;;;;;;;10447977;28;20028;-74
2022/06/12 09:42:31;;;;;;;11.98;8.45;;;;;;;;;;10441192;28;20032;-75
2022/06/12 09:47:46;;;;;;;10.75;8.18;;;;;;;;;;10439167;28;20635;-76
2022/06/12 09:53:01;;;;;;;13.32;9.85;;;;;;;;;;10439761;28;20477;-74
2022/06/12 09:58:11;;;;;;;13.77;9.00;;;;;;;;;;10455321;28;20021;-74
2022/06/12 10:03:21;;;;;;;15.93;10.23;;;;;;;;;;10455701;28;20028;-80
2022/06/12 10:08:26;;;;;;;14.88;9.95;;;;;;;;;;10438930;28;20486;-75
2022/06/12 10:13:59;;;;;;;17.10;11.57;;;;;;;;;;10433331;28;20222;-71
2022/06/12 10:19:03;;;;;;;15.27;10.85;;;;;;;;;;10410413;28;20035;-80
2022/06/12 10:24:04;;;;;;;17.55;11.10;;;;;;;;;;10442364;28;20467;-77
2022/06/12 10:29:08;;;;;;;17.70;9.13;;;;;;;;;;10430181;28;20029;-73
2022/06/12 10:34:19;;;;;;;14.95;9.20;;;;;;;;;;10433579;28;20378;-73
2022/06/12 10:39:20;;;;;;;13.02;8.98;;;;;;;;;;10420957;28;20021;-78
2022/06/12 10:44:38;;;;;;;13.13;8.70;;;;;;;;;;10433309;28;20020;-73
2022/06/12 10:49:39;;;;;;;10.43;8.30;;;;;;;;;;10429331;28;20029;-71
2022/06/12 10:54:39;;;;;;;11.23;8.10;;;;;;;;;;10430638;28;20111;-75
2022/06/12 10:59:45;;;;;;;12.45;6.88;;;;;;;;;;10440962;28;20055;-74
2022/06/12 11:04:45;;;;;;;12.98;6.80;;;;;;;;;;10424921;28;20028;-77
2022/06/12 11:09:45;;;;;;;9.23;5.05;;;;;;;;;;10447893;28;20753;-76
2022/06/12 11:14:45;;;;;;;7.75;4.88;;;;;;;;;;10449797;28;20041;-73
2022/06/12 11:20:05;;;;;;;10.93;5.88;;;;;;;;;;10448440;28;20109;-76
2022/06/12 11:25:05;;;;;;;23.77;7.60;;;;;;;;;;10436926;28;20058;-75
2022/06/12 11:30:06;;;;;;;9.73;5.82;;;;;;;;;;10443710;28;20104;-75
2022/06/12 11:35:09;;;;;;;7.43;4.25;;;;;;;;;;10447040;28;20027;-73
2022/06/12 11:40:35;;;;;;;6.28;3.92;;;;;;;;;;10436349;28;20032;-77
2022/06/12 11:45:39;;;;;;;7.28;4.25;;;;;;;;;;10430902;28;20107;-76
2022/06/12 11:50:56;;;;;;;9.40;4.22;;;;;;;;;;10436452;28;20031;-74
2022/06/12 11:55:56;;;;;;;5.27;4.20;;;;;;;;;;10432335;28;20031;-76
2022/06/12 12:01:01;;;;;;;7.05;4.60;;;;;;;;;;10432434;28;20028;-74
2022/06/12 12:06:15;;;;;;;6.80;4.68;;;;;;;;;;10426058;28;20064;-71
2022/06/12 12:11:24;;;;;;;6.15;3.50;;;;;;;;;;10420344;28;20041;-76
2022/06/12 12:16:38;;;;;;;5.85;4.22;;;;;;;;;;10430728;28;20461;-75
2022/06/12 12:21:42;;;;;;;6.45;4.40;;;;;;;;;;10412162;28;20590;-75
2022/06/12 12:26:43;;;;;;;10.65;5.30;;;;;;;;;;10441251;28;20126;-72
2022/06/12 12:31:45;;;;;;;5.82;4.15;;;;;;;;;;10429182;28;20102;-74
2022/06/12 12:42:04;;;;;;;6.72;3.88;;;;;;;;;;10433407;28;20028;-74
2022/06/12 12:47:16;;;;;;;8.07;4.53;;;;;;;;;;10422635;28;20549;-75
2022/06/12 12:52:18;;;;;;;6.88;4.63;;;;;;;;;;10425504;28;20544;-76
2022/06/12 12:57:39;;;;;;;9.13;4.57;;;;;;;;;;10437194;28;20029;-71
2022/06/12 13:02:54;;;;;;;13.00;5.28;;;;;;;;;;10439886;28;20029;-70
2022/06/12 13:08:06;;;;;;;11.32;5.43;;;;;;;;;;10430171;28;20510;-71
2022/06/12 13:13:09;;;;;;;8.23;5.03;;;;;;;;;;10425019;28;20049;-73
2022/06/12 13:18:26;;;;;;;6.88;5.25;;;;;;;;;;10447867;28;20029;-76
2022/06/12 13:23:45;;;;;;;8.65;4.68;;;;;;;;;;10460238;28;20033;-74
2022/06/12 13:28:57;;;;;;;8.93;5.00;;;;;;;;;;10458978;28;20020;-75
2022/06/12 13:33:58;;;;;;;7.35;5.10;;;;;;;;;;10460852;28;20387;-75
2022/06/12 13:38:59;;;;;;;7.63;5.55;;;;;;;;;;10459869;28;20106;-71
2022/06/12 13:44:19;;;;;;;9.38;5.32;;;;;;;;;;10459780;28;20052;-77
2022/06/12 13:49:35;;;;;;;5.97;4.95;;;;;;;;;;10440358;28;20037;-73
2022/06/12 13:54:42;;;;;;;6.78;5.20;;;;;;;;;;10456077;28;20032;-75
2022/06/12 13:59:45;;;;;;;10.02;6.80;;;;;;;;;;10455741;28;20028;-70
2022/06/12 14:04:50;;;;;;;11.23;6.53;;;;;;;;;;10450775;28;20024;-71
2022/06/12 14:09:55;;;;;;;12.48;8.23;;;;;;;;;;10461618;28;20202;-75
2022/06/12 14:14:56;;;;;;;13.27;7.28;;;;;;;;;;10452704;28;20127;-71
2022/06/12 14:20:01;;;;;;;12.90;9.02;;;;;;;;;;10455521;28;20038;-75
2022/06/12 14:25:14;;;;;;;13.30;9.20;;;;;;;;;;10456854;28;20029;-71
2022/06/12 14:30:50;;;;;;;11.48;8.23;;;;;;;;;;10451495;28;20079;-70
2022/06/12 14:35:50;;;;;;;10.27;7.72;;;;;;;;;;10321122;28;20136;-74
2022/06/12 14:40:51;;;;;;;14.48;8.25;;;;;;;;;;10433474;28;20028;-71
2022/06/12 14:45:56;;;;;;;16.70;9.57;;;;;;;;;;10443032;28;20056;-71
2022/06/12 14:50:57;;;;;;;18.83;10.50;;;;;;;;;;10428247;28;20483;-73
2022/06/12 14:55:59;;;;;;;16.40;9.95;;;;;;;;;;10427592;28;20021;-79
2022/06/12 15:01:00;;;;;;;19.85;10.15;;;;;;;;;;10438407;28;20048;-79
2022/06/12 15:06:01;;;;;;;21.58;10.38;;;;;;;;;;10441633;28;20090;-75
2022/06/12 15:11:12;;;;;;;15.80;10.10;;;;;;;;;;10453213;28;20103;-75
2022/06/12 15:16:12;;;;;;;18.60;9.18;;;;;;;;;;10417747;28;20028;-72
2022/06/12 15:21:25;;;;;;;18.63;9.93;;;;;;;;;;10443959;28;20059;-73
2022/06/12 15:31:44;;;;;;;26.27;12.30;;;;;;;;;;10446832;28;20024;-73
2022/06/12 15:36:44;;;;;;;22.65;10.77;;;;;;;;;;10438894;28;20017;-76
2022/06/12 15:41:44;;;;;;;24.35;12.80;;;;;;;;;;10433718;28;20115;-72
2022/06/12 15:46:45;;;;;;;17.03;9.97;;;;;;;;;;10434038;28;20024;-75
2022/06/12 15:51:46;;;;;;;16.98;9.52;;;;;;;;;;10444304;28;20467;-73
2022/06/12 15:56:55;;;;;;;21.58;10.20;;;;;;;;;;10441609;28;20028;-71
2022/06/12 16:01:56;;;;;;;17.92;10.32;;;;;;;;;;10443530;28;20032;-70
2022/06/12 16:06:56;;;;;;;18.07;9.17;;;;;;;;;;10427355;28;20038;-72
2022/06/12 16:11:56;;;;;;;11.73;5.95;;;;;;;;;;10441295;28;20322;-73
2022/06/12 16:16:56;;;;;;;10.60;5.05;;;;;;;;;;10428280;28;20051;-75
2022/06/12 16:21:57;;;;;;;10.10;5.18;;;;;;;;;;10451335;28;20124;-74
2022/06/12 16:26:57;;;;;;;10.02;5.57;;;;;;;;;;10440943;28;20024;-75
2022/06/12 16:31:57;;;;;;;8.20;5.00;;;;;;;;;;10436587;28;20038;-76
2022/06/12 16:36:59;;;;;;;8.40;4.57;;;;;;;;;;10450850;28;20033;-73
2022/06/12 16:42:00;;;;;;;10.02;6.47;;;;;;;;;;10436958;28;20036;-75
2022/06/12 16:47:00;;;;;;;12.60;6.70;;;;;;;;;;10436672;28;20383;-77
2022/06/12 16:52:14;;;;;;;13.38;7.22;;;;;;;;;;10418167;28;20124;-72
2022/06/12 16:57:15;;;;;;;27.75;8.65;;;;;;;;;;10443842;28;20083;-76
2022/06/12 17:02:17;;;;;;;14.20;7.50;;;;;;;;;;10421729;28;20057;-72
2022/06/12 17:07:20;;;;;;;13.85;7.60;;;;;;;;;;10417097;28;20017;-77
2022/06/12 17:12:22;;;;;;;15.70;8.07;;;;;;;;;;10414438;28;20041;-71
2022/06/12 17:17:23;;;;;;;11.88;7.80;;;;;;;;;;10412253;28;20406;-72
2022/06/12 17:22:23;;;;;;;12.02;7.60;;;;;;;;;;10398995;28;20052;-74
2022/06/12 17:27:24;;;;;;;14.45;7.00;;;;;;;;;;10410913;28;20163;-73
2022/06/12 17:32:25;;;;;;;10.80;7.03;;;;;;;;;;10416256;28;20038;-69
2022/06/12 17:37:29;;;;;;;10.15;7.03;;;;;;;;;;10502896;23;20538;-72
2022/06/12 17:42:29;;;;;;;11.80;6.20;;;;;;;;;;10407216;28;20025;-72
2022/06/12 17:47:30;;;;;;;12.40;7.50;;;;;;;;;;10422387;28;20056;-75
2022/06/12 17:52:30;;;;;;;15.63;8.43;;;;;;;;;;10406338;28;20288;-79
2022/06/12 17:57:30;;;;;;;11.43;7.15;;;;;;;;;;10420984;28;20039;-75
2022/06/12 18:02:30;;;;;;;10.85;6.93;;;;;;;;;;10421703;28;20094;-72
2022/06/12 18:07:31;;;;;;;13.17;7.30;;;;;;;;;;10408052;28;20040;-75
2022/06/12 18:12:31;;;;;;;11.70;7.67;;;;;;;;;;10409771;28;20495;-73
2022/06/12 18:22:50;;;;;;;13.95;7.75;;;;;;;;;;10426423;28;20032;-77
2022/06/12 18:27:51;;;;;;;16.73;8.20;;;;;;;;;;10418529;28;20025;-74
2022/06/12 18:32:51;;;;;;;15.23;7.35;;;;;;;;;;10417117;28;20514;-74
2022/06/12 18:37:51;;;;;;;13.90;7.72;;;;;;;;;;10417087;28;20110;-75
2022/06/12 18:42:52;;;;;;;16.60;9.47;;;;;;;;;;10415132;28;20025;-79
2022/06/12 18:47:52;;;;;;;34.63;15.50;;;;;;;;;;10416108;28;20032;-75
2022/06/12 18:52:52;;;;;;;123.40;63.28;;;;;;;;;;10415264;28;20037;-71
2022/06/12 18:57:52;;;;;;;78.13;39.05;;;;;;;;;;10408095;28;20124;-75
2022/06/12 19:02:53;;;;;;;52.03;29.75;;;;;;;;;;10402556;28;20474;-74
2022/06/12 19:07:54;;;;;;;50.80;25.88;;;;;;;;;;10405916;28;20033;-68
2022/06/12 19:12:54;;;;;;;43.25;21.77;;;;;;;;;;10406264;28;20025;-74
2022/06/12 19:17:55;;;;;;;32.97;13.65;;;;;;;;;;10431091;28;20021;-71
2022/06/12 19:22:55;;;;;;;17.77;10.32;;;;;;;;;;10421260;28;20025;-78
2022/06/12 19:27:55;;;;;;;25.57;11.47;;;;;;;;;;10437446;28;20429;-74
2022/06/12 19:32:57;;;;;;;15.83;8.80;;;;;;;;;;10411484;28;20037;-77
2022/06/12 19:37:57;;;;;;;19.15;9.02;;;;;;;;;;10419782;28;21183;-73
2022/06/12 19:42:57;;;;;;;15.67;8.50;;;;;;;;;;10421251;28;20075;-73
2022/06/12 19:47:58;;;;;;;18.10;9.83;;;;;;;;;;10420898;28;20024;-72
2022/06/12 19:52:58;;;;;;;13.48;7.88;;;;;;;;;;10421360;28;20076;-71
2022/06/12 19:57:58;;;;;;;12.43;7.70;;;;;;;;;;10420422;28;20017;-74
2022/06/12 20:02:59;;;;;;;13.82;8.02;;;;;;;;;;10421896;28;20039;-77
2022/06/12 20:07:59;;;;;;;11.95;5.82;;;;;;;;;;10421162;28;20028;-72
2022/06/12 20:12:59;;;;;;;16.60;7.72;;;;;;;;;;10406649;28;20029;-73
2022/06/12 20:18:15;;;;;;;12.27;6.67;;;;;;;;;;10426699;28;20021;-72
2022/06/12 20:23:15;;;;;;;11.88;7.25;;;;;;;;;;10445369;28;20025;-72
2022/06/12 20:28:16;;;;;;;9.82;5.47;;;;;;;;;;10427735;28;20025;-73
2022/06/12 20:33:16;;;;;;;12.97;7.10;;;;;;;;;;10457408;28;20023;-74
2022/06/12 20:38:16;;;;;;;14.53;6.90;;;;;;;;;;10401817;28;20385;-75
2022/06/12 20:43:17;;;;;;;18.63;9.18;;;;;;;;;;10392017;28;20025;-75
2022/06/12 20:48:18;;;;;;;17.60;6.82;;;;;;;;;;10391682;28;20021;-75
2022/06/12 20:53:18;;;;;;;11.90;6.77;;;;;;;;;;10391779;28;20022;-73
2022/06/12 20:58:18;;;;;;;10.57;6.18;;;;;;;;;;10391946;28;20021;-72
2022/06/12 21:03:18;;;;;;;12.93;7.07;;;;;;;;;;10391509;28;20049;-73
2022/06/12 21:08:19;;;;;;;12.35;6.28;;;;;;;;;;10408709;28;20045;-71
2022/06/12 21:13:20;;;;;;;11.50;6.90;;;;;;;;;;10391235;28;20026;-72
2022/06/12 21:18:21;;;;;;;10.85;6.72;;;;;;;;;;10390727;28;20021;-74
2022/06/12 21:23:21;;;;;;;11.50;6.90;;;;;;;;;;10390832;28;20034;-78
2022/06/12 21:28:22;;;;;;;10.60;6.78;;;;;;;;;;10408478;28;20488;-78
2022/06/12 21:33:22;;;;;;;12.52;7.75;;;;;;;;;;10390129;28;20469;-73
2022/06/12 21:38:22;;;;;;;13.13;7.68;;;;;;;;;;10426427;28;20087;-72
2022/06/12 21:43:23;;;;;;;13.52;7.38;;;;;;;;;;10429219;28;20132;-71
2022/06/12 21:48:23;;;;;;;9.35;6.30;;;;;;;;;;10415231;28;20017;-79
2022/06/12 21:58:42;;;;;;;16.92;8.55;;;;;;;;;;10407949;28;20021;-73
2022/06/12 22:03:42;;;;;;;16.10;8.07;;;;;;;;;;10407706;28;20025;-74
2022/06/12 22:08:43;;;;;;;18.63;8.85;;;;;;;;;;10405878;28;20079;-71
2022/06/12 22:13:43;;;;;;;14.75;9.60;;;;;;;;;;10389019;28;20021;-71
2022/06/12 22:18:43;;;;;;;16.27;8.43;;;;;;;;;;10388785;28;20083;-72
2022/06/12 22:23:43;;;;;;;16.38;9.38;;;;;;;;;;10388825;28;20048;-73
2022/06/12 22:28:44;;;;;;;16.00;9.20;;;;;;;;;;10388440;28;20109;-71
2022/06/12 22:33:44;;;;;;;16.33;9.17;;;;;;;;;;10387853;28;20029;-71
2022/06/12 22:38:45;;;;;;;16.52;8.73;;;;;;;;;;10426607;28;20041;-75
2022/06/12 22:43:46;;;;;;;19.35;10.75;;;;;;;;;;10428706;28;20563;-73
2022/06/12 22:48:47;;;;;;;22.92;9.52;;;;;;;;;;10428190;28;20086;-71
2022/06/12 22:53:47;;;;;;;19.08;9.98;;;;;;;;;;10428457;28;20036;-74
2022/06/12 22:58:47;;;;;;;30.77;12.43;;;;;;;;;;10429857;28;20020;-72
2022/06/12 23:03:48;;;;;;;21.67;11.40;;;;;;;;;;10427554;28;20128;-70
2022/06/12 23:08:48;;;;;;;22.10;11.27;;;;;;;;;;10445834;28;20017;-74
2022/06/12 23:13:49;;;;;;;25.55;10.80;;;;;;;;;;10427593;28;20017;-72
2022/06/12 23:18:49;;;;;;;20.48;11.27;;;;;;;;;;10427695;28;20600;-72
2022/06/12 23:23:49;;;;;;;17.00;9.43;;;;;;;;;;10427053;28;20430;-72
2022/06/12 23:28:52;;;;;;;18.88;11.00;;;;;;;;;;10445483;28;20501;-72
2022/06/12 23:33:52;;;;;;;17.23;10.00;;;;;;;;;;10425391;28;20033;-78
2022/06/12 23:38:52;;;;;;;22.07;9.80;;;;;;;;;;10422466;28;20427;-73
2022/06/12 23:43:52;;;;;;;18.60;10.18;;;;;;;;;;10426714;28;20052;-76
2022/06/12 23:48:56;;;;;;;14.65;8.63;;;;;;;;;;10426864;28;20021;-70
2022/06/12 23:53:56;;;;;;;16.67;8.95;;;;;;;;;;10426307;28;20024;-73
2022/06/12 23:58:56;;;;;;;18.00;9.00;;;;;;;;;;10426719;28;20017;-75
